Time;durP1;ratioP1;P1;durP2;ratioP2;P2;SDS_P1;SDS_P2;PMS_P1;PMS_P2;Temp;Humidity;BMP_temperature;BMP_pressure;BME280_temperature;BME280_humidity;BME280_pressure;Samples;Min_cycle;Max_cycle;Signal;HPM_P1;HPM_P2
2022/07/07 00:00:05;;;;;;;37.08;34.47;;;;;;;20.94;100.00;100776.16;6040249;23;20046;-83
2022/07/07 00:02:33;;;;;;;35.03;32.53;;;;;;;21.26;100.00;100771.19;6040002;23;20024;-85
2022/07/07 00:04:59;;;;;;;30.92;28.73;;;;;;;21.14;100.00;100781.47;6040591;23;20023;-84
2022/07/07 00:07:30;;;;;;;34.08;31.67;;;;;;;20.67;100.00;100781.88;6040168;23;20023;-83
2022/07/07 00:09:57;;;;;;;37.25;34.85;;;;;;;20.93;100.00;100779.91;6040432;23;20344;-83
2022/07/07 00:12:25;;;;;;;43.83;40.50;;;;;;;20.45;100.00;100774.81;6040691;23;20378;-82
2022/07/07 00:14:54;;;;;;;37.67;35.00;;;;;;;20.57;100.00;100786.19;6040364;23;20026;-81
2022/07/07 00:17:21;;;;;;;38.78;35.78;;;;;;;20.91;100.00;100782.06;6041010;23;20023;-83
2022/07/07 00:19:48;;;;;;;36.17;33.58;;;;;;;21.15;100.00;100777.72;6040260;23;20030;-83
2022/07/07 00:22:15;;;;;;;36.95;34.35;;;;;;;21.16;100.00;100775.81;6040133;23;20027;-83
2022/07/07 00:24:44;;;;;;;38.90;36.20;;;;;;;21.25;100.00;100774.16;6040631;23;20027;-83
2022/07/07 00:27:11;;;;;;;37.63;34.33;;;;;;;20.45;100.00;100777.50;6039759;23;20481;-84
2022/07/07 00:29:38;;;;;;;36.45;33.88;;;;;;;21.40;100.00;100773.34;6040183;23;20060;-83
2022/07/07 00:32:06;;;;;;;36.63;34.17;;;;;;;21.44;100.00;100772.50;6040066;23;20417;-82
2022/07/07 00:34:34;;;;;;;35.63;33.33;;;;;;;21.61;100.00;100769.44;6040405;23;20038;-83
2022/07/07 00:37:01;;;;;;;44.97;42.28;;;;;;;21.42;100.00;100779.25;6039751;23;20023;-81
2022/07/07 00:39:28;;;;;;;38.78;36.47;;;;;;;20.90;100.00;100789.38;6040124;23;20027;-83
2022/07/07 00:41:55;;;;;;;33.60;31.30;;;;;;;20.72;100.00;100782.66;6040201;23;20027;-83
2022/07/07 00:44:27;;;;;;;35.45;32.80;;;;;;;20.91;100.00;100790.16;6040314;23;20031;-82
2022/07/07 00:46:55;;;;;;;36.13;33.47;;;;;;;21.24;100.00;100786.88;6039864;23;20445;-81
2022/07/07 00:49:23;;;;;;;35.13;32.72;;;;;;;21.53;100.00;100793.53;6040172;23;20075;-83
2022/07/07 00:51:52;;;;;;;35.42;32.92;;;;;;;21.23;100.00;100787.94;6039781;23;20023;-81
2022/07/07 00:54:19;;;;;;;35.63;33.22;;;;;;;21.57;100.00;100798.09;6039874;23;20023;-84
2022/07/07 00:56:46;;;;;;;34.30;31.90;;;;;;;21.69;100.00;100789.66;6040489;23;20020;-81
2022/07/07 00:59:19;;;;;;;33.97;31.67;;;;;;;21.77;100.00;100793.69;6039981;23;20023;-83
2022/07/07 01:01:46;;;;;;;34.50;31.92;;;;;;;20.75;100.00;100792.91;6039691;23;20094;-84
2022/07/07 01:04:14;;;;;;;37.85;35.17;;;;;;;21.62;100.00;100787.28;6039968;23;20027;-83
2022/07/07 01:06:43;;;;;;;43.30;40.75;;;;;;;21.73;100.00;100788.03;6040213;23;20023;-81
2022/07/07 01:09:10;;;;;;;35.40;32.92;;;;;;;20.82;100.00;100792.63;6039947;23;20031;-81
2022/07/07 01:11:57;;;;;;;35.72;33.33;;;;;;;21.46;100.00;100785.72;6040429;23;20381;-81
2022/07/07 01:14:30;;;;;;;38.70;36.20;;;;;;;21.20;100.00;100788.47;6039374;23;20472;-84
2022/07/07 01:16:57;;;;;;;40.05;36.05;;;;;;;21.67;100.00;100781.84;6039558;23;20023;-81
2022/07/07 01:19:26;;;;;;;36.30;33.70;;;;;;;21.55;100.00;100778.66;6039852;23;20045;-83
2022/07/07 01:21:58;;;;;;;35.92;33.53;;;;;;;21.76;100.00;100776.66;6039228;23;20020;-81
2022/07/07 01:24:28;;;;;;;39.70;37.03;;;;;;;21.65;100.00;100780.50;6039329;23;20472;-83
2022/07/07 01:27:09;;;;;;;38.28;35.75;;;;;;;21.60;100.00;100777.81;6039408;23;20020;-84
2022/07/07 01:29:37;;;;;;;40.92;38.13;;;;;;;21.33;100.00;100780.88;6039853;23;20024;-83
2022/07/07 01:32:07;;;;;;;42.35;39.45;;;;;;;20.65;100.00;100779.44;6040175;23;20403;-82
2022/07/07 01:34:35;;;;;;;41.17;38.13;;;;;;;21.16;100.00;100786.63;6041467;23;20027;-83
2022/07/07 01:37:02;;;;;;;35.88;33.38;;;;;;;21.39;100.00;100794.16;6041872;23;20027;-81
2022/07/07 01:39:30;;;;;;;39.80;36.90;;;;;;;20.68;100.00;100792.38;6040659;23;20023;-82
2022/07/07 01:41:58;;;;;;;35.97;33.50;;;;;;;21.23;100.00;100790.63;6042583;23;20023;-81
2022/07/07 01:44:25;;;;;;;37.28;34.45;;;;;;;20.91;100.00;100796.41;6041823;23;20023;-80
2022/07/07 01:46:52;;;;;;;37.90;35.20;;;;;;;20.72;100.00;100793.44;6042751;23;20508;-84
2022/07/07 01:49:19;;;;;;;38.55;35.85;;;;;;;20.70;100.00;100795.63;6042901;23;20031;-85
2022/07/07 01:51:46;;;;;;;34.65;32.05;;;;;;;21.33;100.00;100797.09;6042058;23;20091;-82
2022/07/07 01:54:14;;;;;;;33.58;31.27;;;;;;;21.43;100.00;100792.50;6042166;23;20038;-84
2022/07/07 01:56:43;;;;;;;36.78;34.17;;;;;;;21.14;100.00;100804.97;6042428;23;20019;-80
2022/07/07 01:59:10;;;;;;;37.53;34.85;;;;;;;20.36;100.00;100798.84;6041979;23;20350;-82
2022/07/07 02:01:37;;;;;;;45.40;41.97;;;;;;;20.12;100.00;100806.63;6034501;23;20050;-83
2022/07/07 02:04:27;;;;;;;42.72;39.33;;;;;;;21.05;100.00;100807.44;6041553;23;20091;-81
2022/07/07 02:06:54;;;;;;;50.40;46.70;;;;;;;20.38;100.00;100808.53;6042694;23;20027;-81
2022/07/07 02:09:21;;;;;;;52.17;48.17;;;;;;;20.58;100.00;100806.69;6042204;23;20528;-84
2022/07/07 02:11:49;;;;;;;52.78;49.13;;;;;;;21.13;100.00;100801.47;6042840;23;20023;-83
2022/07/07 02:14:16;;;;;;;45.40;42.38;;;;;;;21.29;100.00;100802.22;6042697;23;20045;-84
2022/07/07 02:16:43;;;;;;;41.13;38.30;;;;;;;20.94;100.00;100803.16;6043220;23;20027;-81
2022/07/07 02:19:10;;;;;;;38.25;35.45;;;;;;;20.81;100.00;100812.59;6042821;23;20045;-82
2022/07/07 02:21:37;;;;;;;37.42;34.60;;;;;;;20.59;100.00;100816.38;6042169;23;20051;-82
2022/07/07 02:24:05;;;;;;;35.38;32.95;;;;;;;20.97;100.00;100829.59;6043474;23;20019;-84
2022/07/07 02:26:33;;;;;;;42.47;39.47;;;;;;;20.97;100.00;100835.00;6040983;23;20024;-81
2022/07/07 02:29:01;;;;;;;53.50;49.97;;;;;;;21.10;100.00;100836.31;6042206;23;20031;-84
2022/07/07 02:31:28;;;;;;;55.30;51.75;;;;;;;21.31;100.00;100834.38;6042458;23;20019;-82
2022/07/07 02:33:55;;;;;;;43.72;40.72;;;;;;;21.47;100.00;100835.97;6041482;23;20345;-81
2022/07/07 02:36:21;;;;;;;42.40;39.70;;;;;;;21.31;100.00;100832.50;6042320;23;20023;-84
2022/07/07 02:38:50;;;;;;;42.05;39.35;;;;;;;21.18;100.00;100838.44;6041684;23;20034;-82
2022/07/07 02:41:17;;;;;;;45.15;41.92;;;;;;;21.47;100.00;100839.47;6039982;23;20106;-82
2022/07/07 02:43:44;;;;;;;45.08;41.97;;;;;;;21.17;100.00;100856.53;6042300;23;20436;-82
2022/07/07 02:46:12;;;;;;;37.90;35.30;;;;;;;21.40;100.00;100865.19;6043577;23;20031;-82
2022/07/07 02:48:39;;;;;;;43.65;40.47;;;;;;;21.72;100.00;100862.09;6041819;23;20023;-82
2022/07/07 02:51:06;;;;;;;43.85;41.15;;;;;;;21.65;100.00;100858.88;6041161;23;20024;-83
2022/07/07 02:53:34;;;;;;;43.65;40.83;;;;;;;21.70;100.00;100866.97;6042072;23;20023;-82
2022/07/07 02:56:01;;;;;;;46.83;43.47;;;;;;;21.89;100.00;100865.25;6042419;23;20034;-81
2022/07/07 02:58:28;;;;;;;45.13;42.03;;;;;;;21.45;100.00;100879.50;6041566;23;20027;-82
2022/07/07 03:00:55;;;;;;;49.08;45.85;;;;;;;21.75;100.00;100875.03;6041002;23;20019;-83
2022/07/07 03:03:23;;;;;;;43.80;41.05;;;;;;;21.74;100.00;100878.84;6041481;23;20031;-84
2022/07/07 03:05:50;;;;;;;42.38;39.83;;;;;;;21.81;100.00;100873.13;6042153;23;20454;-84
2022/07/07 03:08:18;;;;;;;35.88;33.70;;;;;;;21.91;100.00;100881.22;6040751;23;20508;-82
2022/07/07 03:10:45;;;;;;;39.25;36.53;;;;;;;21.48;100.00;100889.75;6041990;23;20071;-84
2022/07/07 03:13:11;;;;;;;37.50;35.03;;;;;;;21.68;100.00;100886.16;6042161;23;20223;-81
2022/07/07 03:15:38;;;;;;;34.25;32.22;;;;;;;21.82;100.00;100891.00;6042497;23;20031;-82
2022/07/07 03:18:05;;;;;;;35.95;33.65;;;;;;;21.81;100.00;100889.34;6043400;23;20038;-81
2022/07/07 03:20:33;;;;;;;33.60;31.35;;;;;;;21.99;100.00;100883.31;6041504;23;20030;-82
2022/07/07 03:23:00;;;;;;;32.20;30.10;;;;;;;22.04;100.00;100891.41;6042665;23;20046;-81
2022/07/07 03:25:27;;;;;;;33.03;30.88;;;;;;;22.12;100.00;100898.16;6041411;23;20023;-83
2022/07/07 03:27:54;;;;;;;33.60;31.70;;;;;;;22.05;100.00;100901.13;6042649;23;20023;-82
2022/07/07 03:30:21;;;;;;;32.50;30.35;;;;;;;22.24;100.00;100895.94;6042282;23;20023;-85
2022/07/07 03:32:48;;;;;;;33.47;31.35;;;;;;;22.09;100.00;100898.72;6041694;23;20027;-81
2022/07/07 03:35:14;;;;;;;39.17;37.08;;;;;;;22.11;100.00;100896.50;6039720;23;20023;-84
2022/07/07 03:37:43;;;;;;;39.88;37.88;;;;;;;22.23;100.00;100899.72;6040472;23;20035;-84
2022/07/07 03:40:10;;;;;;;37.40;35.28;;;;;;;22.22;100.00;100894.59;6042153;23;20027;-84
2022/07/07 03:42:38;;;;;;;36.78;34.78;;;;;;;22.24;100.00;100897.81;6043603;23;20142;-85
2022/07/07 03:45:06;;;;;;;39.92;37.53;;;;;;;22.15;100.00;100893.00;6042100;23;20057;-81
2022/07/07 03:47:33;;;;;;;43.47;40.88;;;;;;;21.93;100.00;100904.16;6040941;23;20019;-82
2022/07/07 03:50:00;;;;;;;37.60;35.40;;;;;;;22.14;100.00;100899.47;6040931;23;20456;-81
2022/07/07 03:52:27;;;;;;;31.90;29.48;;;;;;;21.52;100.00;100903.53;6041204;23;20019;-80
2022/07/07 03:54:55;;;;;;;35.83;33.63;;;;;;;22.16;100.00;100897.34;6042042;23;20512;-81
2022/07/07 03:57:23;;;;;;;34.38;32.28;;;;;;;21.90;100.00;100906.63;6041115;23;20471;-83
2022/07/07 03:59:50;;;;;;;30.83;28.83;;;;;;;22.00;100.00;100898.47;6041565;23;20038;-83
2022/07/07 04:02:16;;;;;;;30.73;28.52;;;;;;;22.18;100.00;100895.16;6040536;23;20027;-83
2022/07/07 04:04:43;;;;;;;30.25;28.35;;;;;;;22.31;100.00;100904.56;6042380;23;20473;-84
2022/07/07 04:07:10;;;;;;;29.27;27.27;;;;;;;22.44;100.00;100888.78;6040793;23;20031;-81
2022/07/07 04:09:37;;;;;;;29.70;28.00;;;;;;;22.50;100.00;100890.38;6041983;23;20020;-84
2022/07/07 04:12:06;;;;;;;30.45;28.25;;;;;;;22.30;100.00;100899.41;6043051;23;20389;-85
2022/07/07 04:14:33;;;;;;;28.90;27.15;;;;;;;22.82;100.00;100889.84;6041797;23;20476;-85
2022/07/07 04:17:00;;;;;;;33.63;31.50;;;;;;;22.45;100.00;100893.94;6043112;23;20027;-81
2022/07/07 04:19:27;;;;;;;31.50;29.67;;;;;;;22.53;100.00;100897.91;6043701;23;20103;-81
2022/07/07 04:21:54;;;;;;;30.73;28.92;;;;;;;22.24;100.00;100889.72;6042885;23;20027;-81
2022/07/07 04:24:21;;;;;;;30.30;28.38;;;;;;;22.72;100.00;100901.56;6042036;23;20031;-81
2022/07/07 04:26:48;;;;;;;29.63;27.92;;;;;;;22.66;100.00;100907.28;6042757;23;20039;-81
2022/07/07 04:29:16;;;;;;;30.10;28.33;;;;;;;22.49;100.00;100910.41;6043092;23;20333;-84
2022/07/07 04:31:44;;;;;;;30.73;28.48;;;;;;;22.36;100.00;100915.34;6044094;23;20038;-83
2022/07/07 04:34:13;;;;;;;26.77;25.23;;;;;;;22.92;100.00;100916.84;6043407;23;20031;-84
2022/07/07 04:36:40;;;;;;;28.70;26.48;;;;;;;22.48;100.00;100927.72;6041869;23;20035;-81
2022/07/07 04:39:08;;;;;;;27.27;25.58;;;;;;;22.15;100.00;100930.84;6042173;23;20067;-81
2022/07/07 04:41:35;;;;;;;29.95;27.95;;;;;;;22.20;100.00;100940.06;6042574;23;20019;-85
2022/07/07 04:44:02;;;;;;;29.13;27.23;;;;;;;22.41;100.00;100942.38;6044007;23;20426;-82
2022/07/07 04:46:30;;;;;;;27.13;25.33;;;;;;;22.39;100.00;100949.13;6042399;23;20027;-82
2022/07/07 04:48:57;;;;;;;27.70;25.98;;;;;;;22.31;100.00;100950.56;6044984;23;20024;-83
2022/07/07 04:51:24;;;;;;;26.60;24.83;;;;;;;22.05;100.00;100962.53;6041810;23;20035;-84
2022/07/07 04:53:51;;;;;;;28.60;26.45;;;;;;;22.30;100.00;100967.03;6042645;23;20027;-83
2022/07/07 04:56:18;;;;;;;28.10;26.17;;;;;;;22.48;100.00;100971.84;6043468;23;20039;-82
2022/07/07 04:58:44;;;;;;;27.23;25.42;;;;;;;22.25;100.00;100972.50;6041443;23;20056;-80
2022/07/07 05:01:11;;;;;;;28.20;26.27;;;;;;;22.36;100.00;100979.47;6043372;23;20031;-82
2022/07/07 05:03:39;;;;;;;26.92;25.25;;;;;;;22.18;100.00;100989.84;6044006;23;20441;-83
2022/07/07 05:06:07;;;;;;;27.10;25.60;;;;;;;22.21;100.00;100982.25;6042516;23;20090;-84
2022/07/07 05:08:34;;;;;;;29.90;27.50;;;;;;;21.62;100.00;100981.06;6042633;23;20027;-82
2022/07/07 05:11:01;;;;;;;29.08;27.35;;;;;;;21.54;100.00;100984.28;6043495;23;20027;-81
2022/07/07 05:13:28;;;;;;;31.73;29.80;;;;;;;21.78;100.00;100981.81;6042673;23;20023;-83
2022/07/07 05:15:54;;;;;;;34.42;32.08;;;;;;;21.95;100.00;100975.00;6043104;23;20027;-81
2022/07/07 05:18:22;;;;;;;27.35;25.85;;;;;;;22.37;100.00;100972.97;6043007;23;20023;-81
2022/07/07 05:20:50;;;;;;;27.00;25.20;;;;;;;21.98;100.00;100972.84;6042922;23;20311;-81
2022/07/07 05:23:17;;;;;;;28.80;27.02;;;;;;;21.84;100.00;100969.91;6043377;23;20027;-80
2022/07/07 05:25:45;;;;;;;31.88;29.83;;;;;;;22.55;100.00;100961.50;6043751;23;20030;-81
2022/07/07 05:28:12;;;;;;;30.05;28.15;;;;;;;22.31;100.00;100969.50;6043691;23;20027;-81
2022/07/07 05:30:38;;;;;;;30.17;28.20;;;;;;;21.99;100.00;100966.34;6043064;23;20034;-80
2022/07/07 05:33:07;;;;;;;29.15;27.15;;;;;;;22.25;100.00;100981.41;6042979;23;20031;-80
2022/07/07 05:35:35;;;;;;;28.88;26.83;;;;;;;22.19;100.00;100977.13;6044243;23;20027;-83
2022/07/07 05:38:03;;;;;;;27.25;25.48;;;;;;;22.91;100.00;100982.94;6041768;23;20437;-83
2022/07/07 05:40:30;;;;;;;28.48;26.67;;;;;;;22.83;100.00;100983.53;6041537;23;20034;-83
2022/07/07 05:42:57;;;;;;;25.27;23.67;;;;;;;22.34;100.00;101009.50;6042863;23;20023;-79
2022/07/07 05:45:24;;;;;;;26.25;24.75;;;;;;;22.16;100.00;101005.53;6043403;23;20027;-80
2022/07/07 05:47:51;;;;;;;26.95;25.17;;;;;;;22.16;100.00;101023.63;6042501;23;20445;-78
2022/07/07 05:50:18;;;;;;;28.40;26.48;;;;;;;22.33;100.00;101021.44;6042415;23;20086;-80
2022/07/07 05:52:45;;;;;;;26.85;25.05;;;;;;;21.89;100.00;101021.28;6040856;23;20027;-81
2022/07/07 05:55:13;;;;;;;26.48;24.77;;;;;;;22.03;100.00;101040.41;6042052;23;20465;-82
2022/07/07 05:57:41;;;;;;;25.80;24.13;;;;;;;22.18;100.00;101052.06;6041471;23;20023;-84
2022/07/07 06:00:10;;;;;;;26.80;25.10;;;;;;;22.19;100.00;101058.28;6040170;23;20030;-80
2022/07/07 06:02:36;;;;;;;24.90;23.23;;;;;;;22.13;100.00;101072.88;6040209;23;20059;-84
2022/07/07 06:05:04;;;;;;;25.15;23.50;;;;;;;22.12;100.00;101077.47;6041107;23;20440;-80
2022/07/07 06:07:31;;;;;;;25.58;23.80;;;;;;;22.26;100.00;101072.31;6041341;23;20027;-81
2022/07/07 06:09:59;;;;;;;25.02;23.45;;;;;;;22.30;100.00;101083.38;6039493;23;20015;-81
2022/07/07 06:12:29;;;;;;;25.35;23.58;;;;;;;22.16;100.00;101086.69;6040408;23;20090;-81
2022/07/07 06:14:55;;;;;;;27.52;25.45;;;;;;;21.96;100.00;101092.91;6040698;23;20484;-81
2022/07/07 06:17:22;;;;;;;30.00;27.63;;;;;;;20.98;100.00;101098.50;6041349;23;20030;-80
2022/07/07 06:19:49;;;;;;;31.73;28.98;;;;;;;20.97;100.00;101105.00;6041518;23;20409;-79
2022/07/07 06:22:16;;;;;;;30.20;27.55;;;;;;;21.02;100.00;101110.38;6042630;23;20034;-80
2022/07/07 06:24:43;;;;;;;30.02;27.65;;;;;;;21.40;100.00;101111.03;6042057;23;20020;-82
2022/07/07 06:27:11;;;;;;;33.10;29.95;;;;;;;20.80;100.00;101118.69;6042046;23;20079;-82
2022/07/07 06:29:40;;;;;;;34.78;31.70;;;;;;;20.72;100.00;101124.59;6042106;23;20062;-81
2022/07/07 06:32:08;;;;;;;33.70;30.45;;;;;;;20.57;100.00;101123.47;6041784;23;20072;-81
2022/07/07 06:34:36;;;;;;;35.35;32.45;;;;;;;20.36;100.00;101118.97;6042358;23;20020;-84
2022/07/07 06:37:04;;;;;;;31.67;28.75;;;;;;;20.04;100.00;101121.75;6043874;23;20027;-80
2022/07/07 06:39:32;;;;;;;33.83;30.80;;;;;;;20.21;100.00;101121.59;6042145;23;20019;-80
2022/07/07 06:41:59;;;;;;;27.75;25.95;;;;;;;24.47;100.00;101114.94;6041400;23;20031;-83
2022/07/07 06:44:30;;;;;;;27.67;24.83;;;;;;;22.71;100.00;101118.44;6039390;23;20023;-82
2022/07/07 06:46:59;;;;;;;29.08;26.67;;;;;;;21.19;100.00;101121.78;6043354;23;20027;-84
2022/07/07 06:49:26;;;;;;;30.38;28.08;;;;;;;20.40;100.00;101125.50;6042629;23;20413;-81
2022/07/07 06:51:53;;;;;;;32.63;29.88;;;;;;;20.43;100.00;101116.06;6043791;23;20374;-83
2022/07/07 06:54:20;;;;;;;35.30;32.38;;;;;;;20.35;100.00;101112.78;6045765;23;20520;-81
2022/07/07 06:56:47;;;;;;;36.10;32.80;;;;;;;20.81;100.00;101112.22;6044404;23;20042;-80
2022/07/07 06:59:17;;;;;;;36.28;33.08;;;;;;;20.38;100.00;101105.25;6043471;23;20027;-84
2022/07/07 07:01:45;;;;;;;37.05;33.80;;;;;;;20.42;100.00;101099.06;6042514;23;20030;-83
2022/07/07 07:04:14;;;;;;;36.67;33.47;;;;;;;20.17;100.00;101102.44;6045255;23;20037;-81
2022/07/07 07:06:41;;;;;;;34.63;31.70;;;;;;;19.82;100.00;101098.44;6047030;23;20057;-80
2022/07/07 07:09:08;;;;;;;34.53;31.58;;;;;;;19.98;100.00;101098.53;6041303;23;20087;-80
2022/07/07 07:11:35;;;;;;;33.58;30.67;;;;;;;20.25;100.00;101093.06;6045217;23;20042;-80
2022/07/07 07:14:02;;;;;;;35.38;32.53;;;;;;;20.20;100.00;101095.72;6046942;23;20019;-80
2022/07/07 07:16:30;;;;;;;35.58;32.55;;;;;;;20.54;100.00;101096.97;6047012;23;20039;-83
2022/07/07 07:18:57;;;;;;;35.20;32.40;;;;;;;20.39;100.00;101096.88;6046251;23;20056;-81
2022/07/07 07:21:25;;;;;;;35.45;32.45;;;;;;;20.65;100.00;101094.34;6044414;23;20046;-83
2022/07/07 07:23:52;;;;;;;35.78;32.90;;;;;;;20.65;100.00;101088.94;6039549;23;20449;-87
2022/07/07 07:26:19;;;;;;;38.97;36.05;;;;;;;21.07;100.00;101082.59;6040942;23;20023;-83
2022/07/07 07:28:46;;;;;;;34.33;31.73;;;;;;;20.90;100.00;101083.63;6040339;23;20333;-81
2022/07/07 07:31:13;;;;;;;36.67;33.95;;;;;;;20.94;100.00;101095.53;6042797;23;20050;-82
2022/07/07 07:33:40;;;;;;;39.53;36.55;;;;;;;21.35;100.00;101089.38;6041243;23;20033;-82
2022/07/07 07:36:09;;;;;;;35.05;32.33;;;;;;;21.26;100.00;101089.91;6040827;23;20023;-79
2022/07/07 07:38:39;;;;;;;36.58;34.00;;;;;;;21.13;100.00;101090.44;6039799;23;20516;-83
2022/07/07 07:41:07;;;;;;;36.60;33.90;;;;;;;21.06;100.00;101084.50;6040367;23;20035;-81
2022/07/07 07:43:34;;;;;;;40.88;37.83;;;;;;;21.47;100.00;101081.84;6041878;23;20027;-80
2022/07/07 07:46:01;;;;;;;38.60;35.30;;;;;;;21.57;100.00;101079.13;6044785;23;20039;-81
2022/07/07 07:48:28;;;;;;;38.40;35.22;;;;;;;21.34;100.00;101083.16;6041713;23;20034;-80
2022/07/07 07:50:55;;;;;;;34.78;32.33;;;;;;;21.57;100.00;101075.63;6043025;23;20389;-82
2022/07/07 07:53:22;;;;;;;38.25;35.65;;;;;;;21.97;100.00;101072.09;6041832;23;20094;-83
2022/07/07 07:55:51;;;;;;;36.70;34.10;;;;;;;21.99;100.00;101078.03;6045732;23;20023;-81
2022/07/07 07:58:17;;;;;;;33.75;31.17;;;;;;;21.43;100.00;101068.06;6044068;23;20493;-83
2022/07/07 08:00:45;;;;;;;37.00;34.22;;;;;;;21.68;100.00;101064.56;6043094;23;20069;-83
2022/07/07 08:03:11;;;;;;;34.70;32.28;;;;;;;21.94;100.00;101072.66;6042653;23;20042;-82
2022/07/07 08:05:38;;;;;;;36.85;34.00;;;;;;;22.08;100.00;101068.25;6042074;23;20027;-81
2022/07/07 08:08:06;;;;;;;30.25;28.05;;;;;;;21.13;100.00;101063.44;6044649;23;20030;-83
2022/07/07 08:10:40;;;;;;;33.15;30.75;;;;;;;21.35;100.00;101068.56;6045903;23;20024;-82
2022/07/07 08:13:08;;;;;;;37.05;34.15;;;;;;;21.87;100.00;101064.78;6045847;23;20425;-81
2022/07/07 08:15:35;;;;;;;34.15;31.75;;;;;;;21.85;100.00;101071.56;6040031;23;20031;-80
2022/07/07 08:18:02;;;;;;;31.55;29.27;;;;;;;21.89;100.00;101062.63;6044546;23;20031;-82
2022/07/07 08:20:30;;;;;;;37.95;35.08;;;;;;;22.60;100.00;101072.47;6042330;23;20031;-80
2022/07/07 08:22:57;;;;;;;39.42;36.50;;;;;;;22.83;100.00;101073.69;6043940;23;20443;-83
2022/07/07 08:25:28;;;;;;;37.40;34.67;;;;;;;22.62;100.00;101072.97;6041583;23;20035;-82
2022/07/07 08:27:55;;;;;;;34.38;31.83;;;;;;;22.84;100.00;101083.44;6044359;23;20039;-84
2022/07/07 08:30:30;;;;;;;33.75;30.98;;;;;;;22.86;100.00;101080.44;6047065;23;20034;-80
2022/07/07 08:32:57;;;;;;;31.83;29.60;;;;;;;22.49;100.00;101079.00;6040871;23;20034;-81
2022/07/07 08:35:24;;;;;;;33.72;31.42;;;;;;;23.01;100.00;101071.47;6043653;23;20034;-82
2022/07/07 08:37:51;;;;;;;35.33;32.85;;;;;;;22.54;100.00;101070.88;6044182;23;20023;-80
2022/07/07 08:40:18;;;;;;;31.42;29.27;;;;;;;22.59;100.00;101078.16;6043712;23;20038;-81
2022/07/07 08:42:45;;;;;;;33.47;31.08;;;;;;;22.64;100.00;101078.13;6046071;23;20030;-80
2022/07/07 08:45:13;;;;;;;31.33;29.15;;;;;;;22.94;100.00;101079.91;6044310;23;20082;-83
2022/07/07 08:47:42;;;;;;;33.35;31.02;;;;;;;23.18;100.00;101084.59;6043803;23;20345;-83
2022/07/07 08:50:09;;;;;;;33.30;30.90;;;;;;;22.39;100.00;101087.97;6042190;23;20456;-83
2022/07/07 08:52:36;;;;;;;39.25;36.38;;;;;;;23.52;100.00;101090.06;6042018;23;20042;-83
2022/07/07 08:55:04;;;;;;;32.35;30.35;;;;;;;23.36;100.00;101081.25;6042004;23;20025;-82
2022/07/07 08:57:31;;;;;;;30.27;28.60;;;;;;;23.30;100.00;101085.91;6042242;23;20059;-82
2022/07/07 08:59:57;;;;;;;29.98;28.15;;;;;;;23.76;100.00;101090.97;6041177;23;20027;-80
2022/07/07 09:02:25;;;;;;;26.92;25.23;;;;;;;23.62;100.00;101095.38;6044631;23;20095;-82
2022/07/07 09:04:53;;;;;;;27.35;25.55;;;;;;;24.12;100.00;101095.25;6046203;23;20024;-81
2022/07/07 09:07:20;;;;;;;22.90;21.70;;;;;;;23.57;100.00;101094.63;6041545;23;20024;-82
2022/07/07 09:09:49;;;;;;;25.92;24.23;;;;;;;24.09;100.00;101095.81;6045153;23;20023;-83
2022/07/07 09:12:18;;;;;;;24.83;23.52;;;;;;;23.18;100.00;101104.41;6044558;23;20019;-82
2022/07/07 09:14:46;;;;;;;24.50;23.00;;;;;;;23.25;100.00;101104.09;6045717;23;20473;-80
2022/07/07 09:17:19;;;;;;;24.40;22.95;;;;;;;23.61;100.00;101110.03;6043897;23;20023;-82
2022/07/07 09:20:00;;;;;;;23.20;22.10;;;;;;;23.75;100.00;101102.09;6046850;23;20094;-83
2022/07/07 09:22:43;;;;;;;22.73;21.52;;;;;;;23.73;100.00;101110.53;6042315;23;20031;-84
2022/07/07 09:25:11;;;;;;;22.85;21.30;;;;;;;23.45;100.00;101113.94;6042544;23;20034;-80
2022/07/07 09:27:55;;;;;;;23.38;21.80;;;;;;;23.77;100.00;101118.88;6046671;23;20024;-80
2022/07/07 09:30:31;;;;;;;22.80;21.63;;;;;;;23.36;100.00;101116.47;6047288;23;20053;-80
2022/07/07 09:32:59;;;;;;;25.75;24.40;;;;;;;23.38;100.00;101122.41;6048831;23;20019;-80
2022/07/07 09:38:22;;;;;;;21.75;20.65;;;;;;;23.97;100.00;101099.72;6043928;23;20086;-82
2022/07/07 09:40:59;;;;;;;21.20;19.98;;;;;;;23.76;100.00;101114.56;6046207;23;20024;-81
2022/07/07 09:43:27;;;;;;;21.58;20.38;;;;;;;24.28;100.00;101109.44;6048266;23;20333;-82
2022/07/07 09:46:10;;;;;;;23.33;21.73;;;;;;;24.33;100.00;101106.69;6042144;23;20443;-82
2022/07/07 09:48:38;;;;;;;22.25;21.02;;;;;;;24.50;100.00;101108.94;6044706;23;20034;-82
2022/07/07 09:51:18;;;;;;;22.90;21.58;;;;;;;25.23;100.00;101105.81;6042446;23;20019;-80
2022/07/07 09:54:07;;;;;;;21.88;20.75;;;;;;;24.51;100.00;101108.66;6040681;23;20023;-82
2022/07/07 09:56:36;;;;;;;23.63;22.23;;;;;;;24.05;100.00;101113.75;6038146;23;20095;-82
2022/07/07 09:59:06;;;;;;;22.48;21.00;;;;;;;24.36;100.00;101108.81;6041193;23;20033;-83
2022/07/07 10:01:36;;;;;;;25.08;23.75;;;;;;;24.18;100.00;101113.88;6042217;23;20069;-81
2022/07/07 10:04:04;;;;;;;24.88;23.08;;;;;;;24.08;100.00;101113.97;6042733;23;20027;-80
2022/07/07 10:06:35;;;;;;;22.88;21.77;;;;;;;23.89;100.00;101116.59;6046644;23;20034;-82
2022/07/07 10:09:04;;;;;;;21.70;20.20;;;;;;;23.67;100.00;101111.63;6045390;23;20067;-82
2022/07/07 10:11:36;;;;;;;21.73;20.42;;;;;;;23.48;100.00;101125.06;6043864;23;20019;-80
2022/07/07 10:14:10;;;;;;;20.95;19.75;;;;;;;23.44;100.00;101128.59;6042934;23;20023;-82
2022/07/07 10:16:37;;;;;;;22.90;21.70;;;;;;;23.77;100.00;101127.03;6043873;23;20027;-82
2022/07/07 10:19:04;;;;;;;21.70;20.50;;;;;;;23.41;100.00;101129.16;6044832;23;20030;-81
2022/07/07 10:21:32;;;;;;;22.42;20.98;;;;;;;23.47;100.00;101133.47;6040274;23;20030;-83
2022/07/07 10:24:00;;;;;;;22.13;20.90;;;;;;;23.53;100.00;101135.03;6043518;23;20046;-82
2022/07/07 10:26:38;;;;;;;25.70;24.10;;;;;;;23.34;100.00;101123.28;6045693;23;20031;-82
2022/07/07 10:29:06;;;;;;;24.70;23.20;;;;;;;23.03;100.00;101135.09;6043977;23;20344;-83
2022/07/07 10:31:33;;;;;;;24.75;23.15;;;;;;;23.15;100.00;101129.34;6043065;23;20030;-83
2022/07/07 10:34:02;;;;;;;24.25;22.75;;;;;;;23.29;100.00;101132.22;6044660;23;20023;-83
2022/07/07 10:37:02;;;;;;;27.20;25.08;;;;;;;24.19;100.00;101129.06;6044164;23;20019;-81
2022/07/07 10:39:34;;;;;;;23.95;22.52;;;;;;;23.53;100.00;101125.00;6044243;23;20028;-80
2022/07/07 10:42:13;;;;;;;24.80;23.40;;;;;;;23.54;100.00;101121.22;6043198;23;20058;-82
2022/07/07 10:44:41;;;;;;;23.38;21.52;;;;;;;23.50;100.00;101132.91;6042366;23;20031;-81
2022/07/07 10:47:29;;;;;;;23.05;21.63;;;;;;;23.42;100.00;101131.63;6043402;23;20027;-80
2022/07/07 10:49:56;;;;;;;23.65;22.15;;;;;;;23.78;100.00;101123.22;6044581;23;20051;-82
2022/07/07 10:52:25;;;;;;;22.45;20.98;;;;;;;23.67;100.00;101118.94;6042288;23;20019;-80
2022/07/07 10:54:55;;;;;;;22.80;21.02;;;;;;;23.99;100.00;101129.25;6041270;23;20027;-82
2022/07/07 10:57:23;;;;;;;22.70;21.27;;;;;;;24.72;100.00;101122.81;6042274;23;20019;-82
2022/07/07 11:00:08;;;;;;;22.10;20.70;;;;;;;24.39;100.00;101127.25;6041919;23;20038;-82
2022/07/07 11:02:36;;;;;;;21.35;20.25;;;;;;;24.41;100.00;101120.41;6042514;23;20020;-82
2022/07/07 11:05:24;;;;;;;21.40;20.00;;;;;;;24.18;100.00;101122.03;6043377;23;20027;-83
2022/07/07 11:08:12;;;;;;;21.80;20.60;;;;;;;25.33;100.00;101121.16;6044388;23;20027;-80
2022/07/07 11:10:54;;;;;;;22.52;21.17;;;;;;;25.09;100.00;101123.94;6043534;23;20024;-82